createdAt,value
2023-01-09T00:00:24.696Z,99127.50
2023-01-09T00:00:57.190Z,99123.53
2023-01-09T00:01:32.542Z,99124.66
2023-01-09T00:02:04.725Z,99129.03
2023-01-09T00:02:40.621Z,99125.37
2023-01-09T00:03:12.512Z,99125.84
2023-01-09T00:03:44.448Z,99128.28
2023-01-09T00:04:16.727Z,99129.44
2023-01-09T00:04:48.650Z,99127.13
2023-01-09T00:05:21.209Z,99128.94
2023-01-09T00:05:53.309Z,99123.87
2023-01-09T00:06:25.486Z,99122.16
2023-01-09T00:06:57.380Z,99133.94
2023-01-09T00:07:29.184Z,99130.47
2023-01-09T00:08:01.058Z,99129.88
2023-01-09T00:08:32.935Z,99129.88
2023-01-09T00:09:04.797Z,99128.44
2023-01-09T00:09:36.596Z,99128.19
2023-01-09T00:10:09.529Z,99129.09
2023-01-09T00:10:41.350Z,99129.22
2023-01-09T00:11:13.178Z,99128.28
2023-01-09T00:11:45.702Z,99132.34
2023-01-09T00:12:17.614Z,99138.34
2023-01-09T00:12:49.684Z,99130.38
2023-01-09T00:13:21.619Z,99124.09
2023-01-09T00:13:53.711Z,99129.16
2023-01-09T00:14:25.674Z,99131.47
2023-01-09T00:14:57.537Z,99138.00
2023-01-09T00:15:29.503Z,99128.72
2023-01-09T00:16:01.343Z,99127.06
2023-01-09T00:16:33.232Z,99131.84
2023-01-09T00:17:05.490Z,99128.88
2023-01-09T00:17:37.769Z,99130.66
2023-01-09T00:18:09.741Z,99132.13
2023-01-09T00:18:41.608Z,99129.28
2023-01-09T00:19:13.514Z,99128.72
2023-01-09T00:19:45.635Z,99138.94
2023-01-09T00:20:17.835Z,99132.41
2023-01-09T00:20:49.698Z,99131.19
2023-01-09T00:21:21.690Z,99131.19
2023-01-09T00:21:53.571Z,99128.78
2023-01-09T00:22:25.740Z,99134.66
2023-01-09T00:22:57.584Z,99131.03
2023-01-09T00:23:29.469Z,99131.38
2023-01-09T00:24:01.387Z,99134.25
2023-01-09T00:24:33.219Z,99126.81
2023-01-09T00:25:05.865Z,99136.12
2023-01-09T00:25:38.139Z,99139.84
2023-01-09T00:26:13.199Z,99130.59
2023-01-09T00:26:45.059Z,99132.63
2023-01-09T00:27:17.285Z,99137.03
2023-01-09T00:27:49.549Z,99134.66
2023-01-09T00:28:21.449Z,99131.25
2023-01-09T00:28:54.189Z,99132.63
2023-01-09T00:29:26.023Z,99137.72
2023-01-09T00:29:58.135Z,99127.03
2023-01-09T00:30:30.098Z,99129.22
2023-01-09T00:31:03.720Z,99128.41
2023-01-09T00:31:35.614Z,99130.81
2023-01-09T00:32:10.158Z,99131.94
2023-01-09T00:32:42.029Z,99127.62
2023-01-09T00:33:14.245Z,99124.44
2023-01-09T00:33:58.327Z,99118.91
2023-01-09T00:34:30.335Z,99129.94
2023-01-09T00:35:02.491Z,99121.53
2023-01-09T00:35:34.386Z,99122.53
2023-01-09T00:36:06.832Z,99127.97
2023-01-09T00:36:38.764Z,99121.62
2023-01-09T00:37:13.540Z,99117.97
2023-01-09T00:37:45.422Z,99128.28
2023-01-09T00:38:17.515Z,99118.44
2023-01-09T00:38:50.347Z,99118.44
2023-01-09T00:39:23.295Z,99123.19
2023-01-09T00:39:55.121Z,99117.78
2023-01-09T00:40:27.024Z,99120.00
2023-01-09T00:41:00.390Z,99116.41
2023-01-09T00:41:47.433Z,99124.44
2023-01-09T00:42:22.540Z,99114.59
2023-01-09T00:42:56.570Z,99116.41
2023-01-09T00:43:32.502Z,99118.88
2023-01-09T00:44:15.764Z,99116.72
2023-01-09T00:44:55.082Z,99114.66
2023-01-09T00:45:29.579Z,99107.22
2023-01-09T00:46:05.344Z,99109.81
2023-01-09T00:46:42.986Z,99110.53
2023-01-09T00:47:27.958Z,99107.47
2023-01-09T00:48:05.214Z,99097.50
2023-01-09T00:48:41.128Z,99106.09
2023-01-09T00:49:15.154Z,99103.25
2023-01-09T00:49:47.960Z,99106.38
2023-01-09T00:50:24.702Z,99099.06
2023-01-09T00:50:59.479Z,99110.88
2023-01-09T00:51:31.460Z,99105.66
2023-01-09T00:52:06.731Z,99102.47
2023-01-09T00:52:40.490Z,99103.25
2023-01-09T00:53:19.170Z,99093.19
2023-01-09T00:53:52.649Z,99099.88
2023-01-09T00:54:24.691Z,99095.69
2023-01-09T00:54:58.882Z,99100.38
2023-01-09T00:55:31.090Z,99098.28
2023-01-09T00:56:08.671Z,99093.06
2023-01-09T00:56:40.530Z,99100.13
2023-01-09T00:57:13.827Z,99094.19
2023-01-09T00:57:45.857Z,99098.81
2023-01-09T00:58:18.493Z,99091.44
2023-01-09T00:58:52.020Z,99092.69
2023-01-09T00:59:24.510Z,99098.56
2023-01-09T00:59:58.049Z,99101.81
2023-01-09T01:00:30.178Z,99097.84
2023-01-09T01:01:02.377Z,99086.25
2023-01-09T01:01:34.365Z,99092.63
2023-01-09T01:02:06.542Z,99097.62
2023-01-09T01:02:38.628Z,99096.81
2023-01-09T01:03:11.054Z,99093.22
2023-01-09T01:03:42.888Z,99101.75
2023-01-09T01:04:33.233Z,99096.00
2023-01-09T01:05:24.643Z,99096.53
2023-01-09T01:06:15.510Z,99099.41
2023-01-09T01:07:05.758Z,99094.19
2023-01-09T01:07:41.083Z,99087.41
2023-01-09T01:08:15.340Z,99091.38
2023-01-09T01:08:47.177Z,99087.94
2023-01-09T01:09:19.020Z,99091.19
2023-01-09T01:09:50.860Z,99086.75
2023-01-09T01:10:25.440Z,99099.22
2023-01-09T01:10:57.300Z,99091.03
2023-01-09T01:11:29.383Z,99088.44
2023-01-09T01:12:01.991Z,99089.44
2023-01-09T01:12:33.846Z,99091.38
2023-01-09T01:13:05.678Z,99084.22
2023-01-09T01:13:38.299Z,99080.25
2023-01-09T01:14:10.139Z,99087.41
2023-01-09T01:14:42.079Z,99091.66
2023-01-09T01:15:14.480Z,99089.41
2023-01-09T01:15:47.082Z,99096.06
2023-01-09T01:16:19.053Z,99087.72
2023-01-09T01:16:50.978Z,99086.09
2023-01-09T01:17:22.979Z,99088.31
2023-01-09T01:17:55.480Z,99086.63
2023-01-09T01:18:27.312Z,99087.31
2023-01-09T01:18:59.196Z,99091.84
2023-01-09T01:19:31.316Z,99082.97
2023-01-09T01:20:08.486Z,99084.03
2023-01-09T01:20:45.064Z,99088.69
2023-01-09T01:21:17.268Z,99081.75
2023-01-09T01:21:49.219Z,99082.19
2023-01-09T01:22:22.169Z,99081.16
2023-01-09T01:22:53.995Z,99085.72
2023-01-09T01:23:26.245Z,99086.75
2023-01-09T01:23:58.092Z,99078.59
2023-01-09T01:24:30.402Z,99078.66
2023-01-09T01:25:02.867Z,99078.66
2023-01-09T01:25:38.350Z,99073.44
2023-01-09T01:26:16.525Z,99079.97
2023-01-09T01:26:48.706Z,99079.25
2023-01-09T01:27:20.637Z,99069.28
2023-01-09T01:27:52.501Z,99070.31
2023-01-09T01:28:24.349Z,99071.87
2023-01-09T01:28:56.229Z,99075.28
2023-01-09T01:29:28.419Z,99076.53
2023-01-09T01:30:00.351Z,99073.72
2023-01-09T01:30:33.249Z,99074.62
2023-01-09T01:31:05.839Z,99077.25
2023-01-09T01:31:37.732Z,99067.59
2023-01-09T01:32:09.930Z,99064.19
2023-01-09T01:32:41.996Z,99066.81
2023-01-09T01:33:13.824Z,99066.47
2023-01-09T01:33:45.939Z,99063.41
2023-01-09T01:34:17.779Z,99070.00
2023-01-09T01:34:49.632Z,99072.03
2023-01-09T01:35:22.562Z,99068.50
2023-01-09T01:36:06.027Z,99065.50
2023-01-09T01:36:37.858Z,99058.50
2023-01-09T01:37:10.037Z,99063.28
2023-01-09T01:37:41.999Z,99066.00
2023-01-09T01:38:13.818Z,99061.91
2023-01-09T01:38:46.978Z,99062.13
2023-01-09T01:39:19.049Z,99059.03
2023-01-09T01:39:52.004Z,99061.97
2023-01-09T01:40:23.823Z,99063.34
2023-01-09T01:40:56.817Z,99054.88
2023-01-09T01:41:31.329Z,99056.09
2023-01-09T01:42:04.714Z,99049.06
2023-01-09T01:42:36.887Z,99053.22
2023-01-09T01:43:12.151Z,99053.44
2023-01-09T01:44:05.470Z,99046.00
2023-01-09T01:44:56.048Z,99047.13
2023-01-09T01:45:29.968Z,99050.88
2023-01-09T01:46:01.914Z,99047.94
2023-01-09T01:46:34.707Z,99056.37
2023-01-09T01:47:06.618Z,99043.81
2023-01-09T01:47:47.596Z,99043.91
2023-01-09T01:48:30.672Z,99046.97
2023-01-09T01:49:15.735Z,99045.16
2023-01-09T01:49:47.897Z,99047.19
2023-01-09T01:50:35.345Z,99042.75
2023-01-09T01:51:09.988Z,99040.72
2023-01-09T01:51:47.362Z,99037.53
2023-01-09T01:52:20.370Z,99033.22
2023-01-09T01:53:05.487Z,99046.38
2023-01-09T01:53:46.238Z,99039.56
2023-01-09T01:54:20.965Z,99033.78
2023-01-09T01:54:53.349Z,99030.38
2023-01-09T01:55:25.496Z,99025.72
2023-01-09T01:56:13.965Z,99034.59
2023-01-09T01:56:50.259Z,99022.31
2023-01-09T01:57:22.164Z,99020.75
2023-01-09T01:57:59.714Z,99028.44
2023-01-09T01:58:33.017Z,99026.00
2023-01-09T01:59:11.558Z,99016.28
2023-01-09T01:59:50.367Z,99027.22
2023-01-09T02:00:27.859Z,99025.13
2023-01-09T02:01:00.137Z,99018.81
2023-01-09T02:01:33.905Z,99017.09
2023-01-09T02:02:06.633Z,99006.75
2023-01-09T02:02:38.686Z,99018.87
2023-01-09T02:03:15.003Z,99016.53
2023-01-09T02:03:47.424Z,99016.84
2023-01-09T02:04:19.618Z,99019.47
2023-01-09T02:04:55.503Z,99017.19
2023-01-09T02:05:27.683Z,99016.66
2023-01-09T02:05:59.774Z,99008.25
2023-01-09T02:06:35.121Z,99007.91
2023-01-09T02:07:09.854Z,99014.38
2023-01-09T02:07:41.741Z,99007.00
2023-01-09T02:08:14.120Z,99004.41
2023-01-09T02:08:47.184Z,99007.47
2023-01-09T02:09:22.788Z,98998.72
2023-01-09T02:09:55.466Z,99009.63
2023-01-09T02:10:27.956Z,99003.25
2023-01-09T02:11:00.296Z,99003.50
2023-01-09T02:11:32.879Z,99002.44
2023-01-09T02:12:26.496Z,99005.41
2023-01-09T02:12:59.475Z,98996.13
2023-01-09T02:13:34.316Z,98999.62
2023-01-09T02:14:06.218Z,99002.25
2023-01-09T02:14:38.075Z,98997.31
2023-01-09T02:15:13.724Z,98993.25
2023-01-09T02:15:48.291Z,98994.16
2023-01-09T02:16:38.068Z,98994.19
2023-01-09T02:17:27.718Z,98996.34
2023-01-09T02:18:17.671Z,98992.34
2023-01-09T02:18:55.853Z,98998.03
2023-01-09T02:19:54.219Z,98995.87
2023-01-09T02:20:34.920Z,99000.03
2023-01-09T02:21:41.229Z,99003.44
2023-01-09T02:22:19.068Z,99000.63
2023-01-09T02:23:15.662Z,98996.66
2023-01-09T02:24:08.928Z,98991.94
2023-01-09T02:24:56.252Z,98997.44
2023-01-09T02:26:02.043Z,98989.63
2023-01-09T02:27:02.372Z,98987.13
2023-01-09T02:27:47.991Z,98991.03
2023-01-09T02:28:35.013Z,98989.88
2023-01-09T02:29:39.094Z,98992.19
2023-01-09T02:30:16.795Z,98986.72
2023-01-09T02:31:06.816Z,98987.50
2023-01-09T02:32:00.712Z,98983.41
2023-01-09T02:32:42.018Z,98988.03
2023-01-09T02:33:26.684Z,98994.28
2023-01-09T02:34:19.877Z,98986.87
2023-01-09T02:35:06.831Z,98981.25
2023-01-09T02:36:08.365Z,98984.66
2023-01-09T02:36:55.341Z,98981.78
2023-01-09T02:37:50.096Z,98987.06
2023-01-09T02:38:54.978Z,98991.38
2023-01-09T02:39:26.793Z,98993.44
2023-01-09T02:40:16.703Z,98981.19
2023-01-09T02:41:20.532Z,98978.94
2023-01-09T02:42:07.811Z,98978.59
2023-01-09T02:42:42.036Z,98975.47
2023-01-09T02:43:14.745Z,98976.97
2023-01-09T02:43:46.581Z,98971.09
2023-01-09T02:44:22.551Z,98976.50
2023-01-09T02:44:54.461Z,98968.69
2023-01-09T02:45:26.522Z,98982.75
2023-01-09T02:45:58.790Z,98982.50
2023-01-09T02:46:30.619Z,98983.88
2023-01-09T02:47:08.773Z,98978.69
2023-01-09T02:47:45.681Z,98973.47
2023-01-09T02:48:17.554Z,98979.91
2023-01-09T02:48:54.169Z,98972.34
2023-01-09T02:49:26.152Z,98975.72
2023-01-09T02:50:02.461Z,98980.16
2023-01-09T02:50:52.523Z,98970.06
2023-01-09T02:51:40.633Z,98976.44
2023-01-09T02:52:21.224Z,98972.28
2023-01-09T02:53:14.983Z,98970.19
2023-01-09T02:54:05.742Z,98971.50
2023-01-09T02:54:56.846Z,98970.19
2023-01-09T02:55:51.575Z,98962.16
2023-01-09T02:56:52.125Z,98960.44
2023-01-09T02:57:46.122Z,98973.91
2023-01-09T02:58:50.428Z,98972.00
2023-01-09T02:59:42.256Z,98970.41
2023-01-09T03:00:29.015Z,98965.31
2023-01-09T03:01:17.822Z,98970.84
2023-01-09T03:01:56.186Z,98973.91
2023-01-09T03:02:47.367Z,98967.66
2023-01-09T03:04:01.011Z,98968.44
2023-01-09T03:04:47.081Z,98970.97
2023-01-09T03:05:38.390Z,98965.06
2023-01-09T03:06:30.413Z,98958.84
2023-01-09T03:07:12.157Z,98963.03
2023-01-09T03:08:02.068Z,98957.69
2023-01-09T03:08:42.126Z,98958.78
2023-01-09T03:09:20.195Z,98959.25
2023-01-09T03:10:02.977Z,98958.31
2023-01-09T03:10:40.693Z,98952.09
2023-01-09T03:11:12.743Z,98954.81
2023-01-09T03:11:52.573Z,98959.69
2023-01-09T03:12:29.662Z,98954.03
2023-01-09T03:13:03.183Z,98954.09
2023-01-09T03:13:54.621Z,98943.25
2023-01-09T03:14:28.038Z,98941.66
2023-01-09T03:15:02.580Z,98946.00
2023-01-09T03:15:37.626Z,98939.75
2023-01-09T03:16:15.692Z,98947.59
2023-01-09T03:16:53.024Z,98940.09
2023-01-09T03:17:46.057Z,98943.34
2023-01-09T03:18:22.116Z,98948.09
2023-01-09T03:18:56.079Z,98946.94
2023-01-09T03:19:33.952Z,98944.47
2023-01-09T03:20:10.475Z,98947.31
2023-01-09T03:20:43.818Z,98947.56
2023-01-09T03:21:17.100Z,98942.88
2023-01-09T03:21:49.885Z,98938.12
2023-01-09T03:22:21.805Z,98935.97
2023-01-09T03:22:56.062Z,98934.59
2023-01-09T03:23:28.294Z,98938.06
2023-01-09T03:24:02.177Z,98935.25
2023-01-09T03:24:34.010Z,98935.97
2023-01-09T03:25:06.387Z,98933.69
2023-01-09T03:25:38.441Z,98936.97
2023-01-09T03:26:11.368Z,98939.22
2023-01-09T03:26:43.821Z,98931.03
2023-01-09T03:27:15.788Z,98936.38
2023-01-09T03:27:47.965Z,98932.19
2023-01-09T03:28:28.465Z,98926.37
2023-01-09T03:29:00.863Z,98933.87
2023-01-09T03:29:32.677Z,98937.72
2023-01-09T03:30:05.239Z,98936.72
2023-01-09T03:30:37.601Z,98932.38
2023-01-09T03:31:09.635Z,98929.53
2023-01-09T03:31:41.548Z,98935.13
2023-01-09T03:32:13.578Z,98938.56
2023-01-09T03:32:45.409Z,98937.62
2023-01-09T03:33:17.254Z,98943.88
2023-01-09T03:33:49.151Z,98947.59
2023-01-09T03:34:21.334Z,98941.22
2023-01-09T03:34:53.190Z,98939.44
2023-01-09T03:35:25.953Z,98943.88
2023-01-09T03:35:57.831Z,98940.59
2023-01-09T03:36:29.727Z,98944.31
2023-01-09T03:37:01.812Z,98945.22
2023-01-09T03:37:33.657Z,98944.31
2023-01-09T03:38:07.303Z,98946.28
2023-01-09T03:38:39.963Z,98939.63
2023-01-09T03:39:12.977Z,98944.41
2023-01-09T03:39:47.588Z,98934.69
2023-01-09T03:40:20.067Z,98941.91
2023-01-09T03:40:51.928Z,98938.19
2023-01-09T03:41:23.891Z,98939.19
2023-01-09T03:41:55.706Z,98939.09
2023-01-09T03:42:27.528Z,98936.13
2023-01-09T03:42:59.396Z,98934.41
2023-01-09T03:43:31.322Z,98938.19
2023-01-09T03:44:03.195Z,98940.09
2023-01-09T03:44:35.053Z,98931.69
2023-01-09T03:45:07.676Z,98933.25
2023-01-09T03:45:39.616Z,98932.25
2023-01-09T03:46:11.732Z,98932.84
2023-01-09T03:46:43.632Z,98930.78
2023-01-09T03:47:15.653Z,98928.41
2023-01-09T03:47:48.048Z,98922.41
2023-01-09T03:48:19.999Z,98923.41
2023-01-09T03:48:51.849Z,98922.19
2023-01-09T03:49:24.153Z,98920.81
2023-01-09T03:49:56.657Z,98924.06
2023-01-09T03:50:28.831Z,98916.75
2023-01-09T03:51:00.704Z,98922.50
2023-01-09T03:51:32.545Z,98920.88
2023-01-09T03:52:04.656Z,98928.84
2023-01-09T03:52:36.506Z,98925.03
2023-01-09T03:53:08.500Z,98922.56
2023-01-09T03:53:41.643Z,98923.59
2023-01-09T03:54:13.492Z,98922.22
2023-01-09T03:54:45.357Z,98922.56
2023-01-09T03:55:17.213Z,98920.31
2023-01-09T03:55:51.698Z,98925.16
2023-01-09T03:56:23.589Z,98920.50
2023-01-09T03:56:55.434Z,98929.91
2023-01-09T03:57:27.299Z,98931.50
2023-01-09T03:57:59.167Z,98935.84
2023-01-09T03:58:31.330Z,98926.66
2023-01-09T03:59:03.262Z,98931.16
2023-01-09T03:59:35.102Z,98929.91
2023-01-09T04:00:08.571Z,98922.56
2023-01-09T04:00:46.075Z,98917.25
2023-01-09T04:01:18.557Z,98919.75
2023-01-09T04:01:50.512Z,98920.88
2023-01-09T04:02:22.531Z,98908.41
2023-01-09T04:02:54.361Z,98915.53
2023-01-09T04:03:26.431Z,98918.37
2023-01-09T04:03:58.350Z,98915.78
2023-01-09T04:04:30.265Z,98916.59
2023-01-09T04:05:02.097Z,98912.06
2023-01-09T04:05:34.646Z,98912.00
2023-01-09T04:06:06.795Z,98912.47
2023-01-09T04:06:38.939Z,98913.81
2023-01-09T04:07:11.126Z,98908.28
2023-01-09T04:07:42.998Z,98907.81
2023-01-09T04:08:14.912Z,98910.19
2023-01-09T04:08:46.822Z,98905.88
2023-01-09T04:09:18.697Z,98904.19
2023-01-09T04:09:50.616Z,98908.16
2023-01-09T04:10:22.488Z,98909.31
2023-01-09T04:10:54.338Z,98907.28
2023-01-09T04:11:26.212Z,98908.88
2023-01-09T04:11:58.351Z,98904.22
2023-01-09T04:12:30.212Z,98906.25
2023-01-09T04:13:02.146Z,98911.13
2023-01-09T04:13:33.987Z,98911.47
2023-01-09T04:14:05.845Z,98905.69
2023-01-09T04:14:37.674Z,98905.59
2023-01-09T04:15:09.877Z,98902.63
2023-01-09T04:15:41.762Z,98906.47
2023-01-09T04:16:13.795Z,98902.50
2023-01-09T04:16:45.723Z,98899.88
2023-01-09T04:17:18.018Z,98900.84
2023-01-09T04:17:49.889Z,98905.09
2023-01-09T04:18:21.808Z,98907.16
2023-01-09T04:18:53.673Z,98908.41
2023-01-09T04:19:25.523Z,98902.63
2023-01-09T04:19:59.113Z,98902.63
2023-01-09T04:20:31.472Z,98906.06
2023-01-09T04:21:03.349Z,98910.09
2023-01-09T04:21:35.226Z,98905.09
2023-01-09T04:22:07.100Z,98903.97
2023-01-09T04:22:39.262Z,98897.72
2023-01-09T04:23:11.117Z,98905.94
2023-01-09T04:23:42.965Z,98897.84
2023-01-09T04:24:14.818Z,98905.59
2023-01-09T04:24:46.640Z,98904.34
2023-01-09T04:25:18.454Z,98903.91
2023-01-09T04:25:50.271Z,98900.28
2023-01-09T04:26:22.113Z,98905.63
2023-01-09T04:26:53.998Z,98904.59
2023-01-09T04:27:25.894Z,98904.81
2023-01-09T04:27:58.087Z,98902.00
2023-01-09T04:28:29.952Z,98903.69
2023-01-09T04:29:01.979Z,98909.13
2023-01-09T04:29:33.849Z,98906.06
2023-01-09T04:30:06.320Z,98907.97
2023-01-09T04:30:38.161Z,98914.53
2023-01-09T04:31:10.278Z,98905.09
2023-01-09T04:31:42.169Z,98907.75
2023-01-09T04:32:14.131Z,98909.22
2023-01-09T04:32:46.032Z,98913.75
2023-01-09T04:33:18.173Z,98917.75
2023-01-09T04:33:50.089Z,98911.50
2023-01-09T04:34:25.837Z,98912.09
2023-01-09T04:34:57.821Z,98910.59
2023-01-09T04:35:29.661Z,98911.84
2023-01-09T04:36:01.650Z,98906.19
2023-01-09T04:36:36.054Z,98908.22
2023-01-09T04:37:07.957Z,98913.22
2023-01-09T04:37:39.810Z,98910.97
2023-01-09T04:38:11.814Z,98911.37
2023-01-09T04:38:43.997Z,98914.56
2023-01-09T04:39:15.867Z,98909.69
2023-01-09T04:39:48.170Z,98913.16
2023-01-09T04:40:20.363Z,98922.09
2023-01-09T04:40:52.223Z,98920.88
2023-01-09T04:41:42.521Z,98916.09
2023-01-09T04:42:14.404Z,98917.72
2023-01-09T04:42:46.491Z,98917.00
2023-01-09T04:43:18.374Z,98916.22
2023-01-09T04:43:50.505Z,98918.81
2023-01-09T04:44:26.883Z,98919.50
2023-01-09T04:44:58.706Z,98914.28
2023-01-09T04:45:30.626Z,98920.19
2023-01-09T04:46:03.447Z,98916.09
2023-01-09T04:46:35.459Z,98916.56
2023-01-09T04:47:07.414Z,98920.19
2023-01-09T04:47:39.386Z,98920.63
2023-01-09T04:48:11.361Z,98921.72
2023-01-09T04:48:43.342Z,98921.19
2023-01-09T04:49:16.179Z,98913.91
2023-01-09T04:49:48.191Z,98910.44
2023-01-09T04:50:20.180Z,98920.31
2023-01-09T04:50:52.161Z,98922.09
2023-01-09T04:51:24.162Z,98919.75
2023-01-09T04:51:57.002Z,98918.97
2023-01-09T04:52:29.174Z,98919.50
2023-01-09T04:53:01.139Z,98923.34
2023-01-09T04:53:34.951Z,98922.22
2023-01-09T04:54:07.240Z,98922.22
2023-01-09T04:54:39.652Z,98920.19
2023-01-09T04:55:20.670Z,98924.25
2023-01-09T04:55:52.667Z,98923.53
2023-01-09T04:56:24.612Z,98925.16
2023-01-09T04:56:56.718Z,98926.72
2023-01-09T04:57:28.672Z,98921.66
2023-01-09T04:58:00.608Z,98925.50
2023-01-09T04:58:32.539Z,98925.28
2023-01-09T04:59:11.534Z,98921.19
2023-01-09T04:59:43.885Z,98923.69
2023-01-09T05:00:18.503Z,98924.13
2023-01-09T05:00:51.946Z,98929.13
2023-01-09T05:01:24.146Z,98923.53
2023-01-09T05:01:58.396Z,98922.62
2023-01-09T05:02:30.419Z,98918.00
2023-01-09T05:03:03.003Z,98922.97
2023-01-09T05:03:34.923Z,98922.62
2023-01-09T05:04:07.644Z,98920.81
2023-01-09T05:04:47.325Z,98924.91
2023-01-09T05:05:19.795Z,98923.91
2023-01-09T05:05:51.902Z,98923.09
2023-01-09T05:06:24.152Z,98919.50
2023-01-09T05:06:56.170Z,98923.69
2023-01-09T05:07:28.141Z,98922.22
2023-01-09T05:08:00.118Z,98918.00
2023-01-09T05:08:32.256Z,98924.25
2023-01-09T05:09:04.367Z,98922.41
2023-01-09T05:09:36.348Z,98919.00
2023-01-09T05:10:09.449Z,98923.41
2023-01-09T05:10:41.746Z,98929.59
2023-01-09T05:11:13.698Z,98919.53
2023-01-09T05:11:45.627Z,98920.22
2023-01-09T05:12:17.616Z,98926.03
2023-01-09T05:12:49.549Z,98918.41
2023-01-09T05:13:21.498Z,98922.84
2023-01-09T05:13:54.222Z,98922.03
2023-01-09T05:14:26.208Z,98920.34
2023-01-09T05:14:58.133Z,98921.13
2023-01-09T05:15:31.050Z,98930.56
2023-01-09T05:16:03.191Z,98926.84
2023-01-09T05:16:35.188Z,98923.28
2023-01-09T05:17:07.051Z,98917.94
2023-01-09T05:17:38.961Z,98916.78
2023-01-09T05:18:10.869Z,98918.72
2023-01-09T05:18:42.820Z,98919.31
2023-01-09T05:19:15.075Z,98923.06
2023-01-09T05:19:47.030Z,98918.87
2023-01-09T05:20:19.035Z,98914.88
2023-01-09T05:20:51.003Z,98922.25
2023-01-09T05:21:24.595Z,98923.63
2023-01-09T05:21:56.539Z,98924.00
2023-01-09T05:22:28.915Z,98922.19
2023-01-09T05:23:00.948Z,98916.25
2023-01-09T05:23:32.902Z,98915.34
2023-01-09T05:24:05.081Z,98918.69
2023-01-09T05:24:37.031Z,98914.78
2023-01-09T05:25:09.230Z,98913.97
2023-01-09T05:25:41.177Z,98915.03
2023-01-09T05:26:13.505Z,98909.69
2023-01-09T05:26:45.687Z,98915.81
2023-01-09T05:27:17.620Z,98917.19
2023-01-09T05:27:49.543Z,98911.84
2023-01-09T05:28:21.495Z,98917.69
2023-01-09T05:28:56.382Z,98925.22
2023-01-09T05:29:28.589Z,98909.94
2023-01-09T05:30:00.548Z,98919.22
2023-01-09T05:30:32.550Z,98917.28
2023-01-09T05:31:04.536Z,98917.63
2023-01-09T05:31:36.522Z,98912.78
2023-01-09T05:32:08.791Z,98913.78
2023-01-09T05:32:40.725Z,98917.56
2023-01-09T05:33:12.773Z,98921.69
2023-01-09T05:33:44.799Z,98917.28
2023-01-09T05:34:16.672Z,98925.66
2023-01-09T05:34:48.520Z,98920.44
2023-01-09T05:35:20.463Z,98920.44
2023-01-09T05:35:52.307Z,98919.28
2023-01-09T05:36:24.160Z,98921.69
2023-01-09T05:36:56.050Z,98914.06
2023-01-09T05:37:28.234Z,98914.88
2023-01-09T05:38:00.309Z,98914.97
2023-01-09T05:38:32.181Z,98913.22
2023-01-09T05:39:05.550Z,98913.00
2023-01-09T05:39:37.446Z,98910.75
2023-01-09T05:40:10.252Z,98909.75
2023-01-09T05:40:42.084Z,98900.66
2023-01-09T05:41:13.963Z,98907.81
2023-01-09T05:41:45.865Z,98906.13
2023-01-09T05:42:17.726Z,98908.28
2023-01-09T05:42:49.963Z,98910.91
2023-01-09T05:43:21.776Z,98912.50
2023-01-09T05:43:53.723Z,98909.75
2023-01-09T05:44:25.688Z,98907.72
2023-01-09T05:44:57.615Z,98906.13
2023-01-09T05:45:29.602Z,98903.19
2023-01-09T05:46:01.618Z,98903.09
2023-01-09T05:46:33.708Z,98901.53
2023-01-09T05:47:05.684Z,98906.44
2023-01-09T05:47:37.969Z,98903.37
2023-01-09T05:48:10.196Z,98900.00
2023-01-09T05:48:42.177Z,98906.47
2023-01-09T05:49:14.175Z,98898.97
2023-01-09T05:49:46.120Z,98903.59
2023-01-09T05:50:18.091Z,98896.59
2023-01-09T05:50:50.040Z,98897.47
2023-01-09T05:51:22.288Z,98895.59
2023-01-09T05:51:54.227Z,98899.19
2023-01-09T05:52:26.120Z,98893.25
2023-01-09T05:52:58.040Z,98891.72
2023-01-09T05:53:30.190Z,98903.50
2023-01-09T05:54:02.918Z,98892.84
2023-01-09T05:54:34.892Z,98895.66
2023-01-09T05:55:08.003Z,98896.81
2023-01-09T05:55:39.936Z,98897.97
2023-01-09T05:56:12.061Z,98894.56
2023-01-09T05:56:44.026Z,98896.72
2023-01-09T05:57:15.948Z,98896.22
2023-01-09T05:57:47.894Z,98897.91
2023-01-09T05:58:19.872Z,98895.59
2023-01-09T05:58:52.131Z,98891.25
2023-01-09T05:59:24.022Z,98886.59
2023-01-09T05:59:55.965Z,98897.00
2023-01-09T06:00:28.342Z,98890.09
2023-01-09T06:01:00.797Z,98891.94
2023-01-09T06:01:32.840Z,98890.50
2023-01-09T06:02:05.053Z,98898.09
2023-01-09T06:02:37.219Z,98894.00
2023-01-09T06:03:09.332Z,98892.03
2023-01-09T06:03:42.095Z,98896.72
2023-01-09T06:04:14.099Z,98894.84
2023-01-09T06:04:46.060Z,98902.59
2023-01-09T06:05:17.972Z,98906.56
2023-01-09T06:05:49.890Z,98896.59
2023-01-09T06:06:22.810Z,98902.16
2023-01-09T06:06:54.646Z,98904.91
2023-01-09T06:07:26.521Z,98904.44
2023-01-09T06:07:58.404Z,98903.31
2023-01-09T06:08:30.318Z,98896.87
2023-01-09T06:09:03.530Z,98895.66
2023-01-09T06:09:35.429Z,98898.63
2023-01-09T06:10:16.469Z,98892.50
2023-01-09T06:10:48.362Z,98893.84
2023-01-09T06:11:20.193Z,98889.44
2023-01-09T06:11:54.652Z,98883.84
2023-01-09T06:12:26.496Z,98885.91
2023-01-09T06:12:58.376Z,98885.47
2023-01-09T06:13:30.227Z,98883.16
2023-01-09T06:14:02.455Z,98883.31
2023-01-09T06:14:34.406Z,98886.69
2023-01-09T06:15:08.886Z,98884.31
2023-01-09T06:15:41.033Z,98884.56
2023-01-09T06:16:14.032Z,98887.25
2023-01-09T06:16:45.998Z,98890.06
2023-01-09T06:17:18.188Z,98875.59
2023-01-09T06:17:50.208Z,98876.84
2023-01-09T06:18:22.029Z,98880.97
2023-01-09T06:18:53.892Z,98878.06
2023-01-09T06:19:25.718Z,98881.37
2023-01-09T06:19:57.569Z,98879.38
2023-01-09T06:20:29.435Z,98871.41
2023-01-09T06:21:01.290Z,98880.41
2023-01-09T06:21:33.832Z,98877.66
2023-01-09T06:22:05.722Z,98882.28
2023-01-09T06:22:38.029Z,98882.28
2023-01-09T06:23:11.222Z,98892.34
2023-01-09T06:23:44.046Z,98882.28
2023-01-09T06:24:15.931Z,98885.47
2023-01-09T06:24:47.780Z,98885.53
2023-01-09T06:25:19.685Z,98895.75
2023-01-09T06:25:51.586Z,98882.28
2023-01-09T06:26:24.246Z,98890.81
2023-01-09T06:26:56.077Z,98888.22
2023-01-09T06:27:28.012Z,98889.44
2023-01-09T06:28:00.174Z,98892.53
2023-01-09T06:28:32.003Z,98896.16
2023-01-09T06:29:03.926Z,98895.00
2023-01-09T06:29:35.836Z,98893.03
2023-01-09T06:30:08.352Z,98902.47
2023-01-09T06:30:40.216Z,98895.44
2023-01-09T06:31:12.136Z,98907.28
2023-01-09T06:31:44.068Z,98900.62
2023-01-09T06:32:15.962Z,98908.72
2023-01-09T06:32:49.327Z,98911.34
2023-01-09T06:33:21.679Z,98908.28
2023-01-09T06:33:54.144Z,98904.09
2023-01-09T06:34:26.026Z,98912.91
2023-01-09T06:34:57.855Z,98909.03
2023-01-09T06:35:29.745Z,98905.91
2023-01-09T06:36:01.810Z,98912.94
2023-01-09T06:36:33.643Z,98911.84
2023-01-09T06:37:05.490Z,98909.03
2023-01-09T06:37:37.388Z,98907.66
2023-01-09T06:38:09.209Z,98906.28
2023-01-09T06:38:41.391Z,98909.63
2023-01-09T06:39:14.163Z,98904.19
2023-01-09T06:39:46.029Z,98911.06
2023-01-09T06:40:18.660Z,98912.22
2023-01-09T06:40:50.848Z,98904.28
2023-01-09T06:41:22.726Z,98913.47
2023-01-09T06:41:54.650Z,98908.91
2023-01-09T06:42:26.491Z,98915.69
2023-01-09T06:42:58.366Z,98913.66
2023-01-09T06:43:30.339Z,98908.38
2023-01-09T06:44:02.465Z,98907.00
2023-01-09T06:44:36.541Z,98916.72
2023-01-09T06:45:08.975Z,98918.56
2023-01-09T06:45:42.777Z,98914.53